AirNav   Pilot Hours Calculator
 
 1614 users online  

31PN Control Dynamics Heliport
Warminster, Pennsylvania, USA

GOING TO WARMINSTER?


FAA INFORMATION EFFECTIVE 25 MARCH 2021

Location

FAA Identifier: 31PN
Lat/Long: 40-12-33.0000N 075-04-53.0000W
40-12.550000N 075-04.883333W
40.2091667,-75.0813889
(estimated)
Elevation: 282 ft. / 86 m (estimated)
Time zone: UTC -4 (UTC -5 during Standard Time)
Zip code: 18974

Heliport Operations

Heliport use: Private use. Permission required prior to landing
Activation date: 04/2009
Control tower: no
ARTCC: NEW YORK CENTER
FSS: WILLIAMSPORT FLIGHT SERVICE STATION
Attendance: MON-FRI 0800-1700
Wind indicator: yes
Segmented circle: no

Heliport Communications

UNICOM: 123.075
WX ASOS at DYL (8 nm N): 118.875 (215-345-0392)
WX ASOS at PNE (8 nm SE): 121.15 (215-677-0146)
WX AWOS-3 at LOM (9 nm SW): 118.925 (215-646-1068)
WX ASOS at TTN (13 nm E): 126.775 (609-538-8690)
WX AWOS-3 at CKZ (14 nm NW): 126.325 (215-257-7291)
WX ASOS at VAY (19 nm SE): 119.325 (609-267-1176)
WX AWOS-3 at UKT (19 nm NW): 119.475 (215-538-7610)

Nearby radio navigation aids

VOR radial/distance  VOR name  Freq  Var
ARDr262/8.4YARDLEY VOR/DME108.2010W
PTWr101/22.0POTTSTOWN VORTAC116.5009W
GXUr310/25.3MC GUIRE VORTAC110.6012W
RBVr281/26.9ROBBINSVILLE VORTAC113.8010W
SBJr225/27.3SOLBERG VOR/DME112.9010W
MXEr066/32.2MODENA VORTAC113.2009W
FJCr161/35.4ALLENTOWN VORTAC117.5010W
ETXr138/35.4EAST TEXAS VOR/DME110.2009W
OODr027/35.9WOODSTOWN VORTAC112.8010W
BWZr210/37.3BROADWAY VOR/DME114.2011W
CYNr318/38.0COYLE VORTAC113.4010W
DQOr047/40.0DUPONT VORTAC114.0010W

 
NDB name  Hdg/Dist  Freq  Var  ID
AMBLER074/10.627512WING .. -. --.
LAKEHURST297/35.639611WNEL -. . .-..

Heliport Services

Runway Information

Helipad H1

Dimensions: 61 x 61 ft. / 19 x 19 m
Surface: turf
Runway edge lights: FLD
Traffic pattern: leftleft

Heliport Ownership and Management from official FAA records

Ownership: Privately-owned
Owner: CONTROL DYNAMICS CORP
960 LOUIS DR
WARMINSTER, PA 18974
Phone 215-956-0700
Manager: HARVEY SHUHART
960 LOUIS DR
WARMINSTER, PA 18974
Phone 215-956-0700

Heliport Operational Statistics

Aircraft based on the field: 1
Helicopters: 1
    

Additional Remarks

FOR CD CTC PHILADELPHIA APCH AT 800-354-9884.

Instrument Procedures

There are no published instrument procedures at 31PN.

Some nearby airports with instrument procedures:

KDYL - Doylestown Airport (8 nm N)
KPNE - Northeast Philadelphia Airport (8 nm SE)
KLOM - Wings Field Airport (9 nm SW)
KTTN - Trenton Mercer Airport (13 nm E)
KCKZ - Pennridge Airport (14 nm NW)
N10 - Perkiomen Valley Airport (16 nm W)
KVAY - South Jersey Regional Airport (19 nm SE)
KUKT - Quakertown Airport (19 nm NW)
 
Loc | Ops | Rwys | IFR | FBO | Links
Com | Nav | Svcs | Stats | Notes
Aerial photo
No photo
 
Sectional chart

 
Airport distance calculator
Flying to Control Dynamics Heliport? Find the distance to fly.

From to 31PN

Sunrise and sunset
Times for 21-Apr-2021
 Local
(UTC-4)
 Zulu
(UTC)
Morning civil twilight05:4609:46
Sunrise06:1410:14
Sunset19:4423:44
Evening civil twilight20:1200:12

Current date and time
Zulu (UTC)  21-Apr-2021 18:43:06
Local (UTC-4)  21-Apr-2021 14:43:06
 
METAR
KDYL 
8nm N 
211816Z AUTO 29017G28KT 10SM SCT027 BKN034 OVC070 12/04 A2963 RMK AO2 PK WND 30029/1759 LTG DSNT SE T01220044
KPNE 
8nm S 
211811Z 30025G34KT 4SM -RA BR SCT050 OVC070 13/12 A2962 RMK AO2 PK WND 31034/1810 LTG DSNT E PRESRR P0003 T01280117
KLOM 
9nm SW 
211815Z AUTO RMK AO2 PWINO
KTTN 
13nm E 
ASOS 133.70 609-538-8690
211817Z 30018G25KT 5SM RA BKN070 OVC085 12/08 A2958 RMK AO2 PK WND 31033/1801 WSHFT 1740 LTG DSNT SE TSB1756E11 P0002 T01220083
KCKZ 
14nm NW 
211815Z AUTO 31014G24KT 10SM SCT027 BKN035 OVC060 09/05 A2967 RMK AO2 LTG DSNT SE
KUKT 
19nm NW 
211815Z AUTO 26012G19KT 220V300 10SM SCT025 SCT033 OVC055 09/04 A2967 RMK A01
TAF
KPNE 
8nm S 
211720Z 2118/2218 24015G24KT 6SM -SHRA VCTS SCT035CB BKN060 TEMPO 2118/2119 31020G35KT 3SM TSRA BKN025CB FM211900 32017G29KT P6SM SCT025 BKN050 FM220200 30014G21KT P6SM SCT050 FM221500 29017G30KT P6SM BKN080
KTTN 
13nm E 
211720Z 2118/2218 23015G24KT 6SM -SHRA VCTS SCT035CB BKN060 TEMPO 2118/2119 31020G35KT 3SM TSRA BKN025CB FM211900 32015G28KT P6SM SCT025 BKN050 FM220200 30012G19KT P6SM SCT050 FM221500 29017G29KT P6SM BKN080
NOTAMs
Click for the latest NOTAMs
NOTAMs are issued by the DoD/FAA and will open in a separate window not controlled by AirNav.

 

 
 

Would you like to see your business listed on this page?

 If your business provides an interesting product or service to pilots, flight crews, aircraft, or users of the Control Dynamics Heliport, you should consider listing it here.  To start the listing process, click on the button below
 
Add a business
 

Other Pages about Control Dynamics Heliport

Update a link
 
Copyright © AirNav, LLC. All rights reserved. Privacy Policy  Contact